Time;durP1;ratioP1;P1;durP2;ratioP2;P2;SDS_P1;SDS_P2;PMS_P1;PMS_P2;Temp;Humidity;BMP_temperature;BMP_pressure;BME280_temperature;BME280_humidity;BME280_pressure;Samples;Min_cycle;Max_cycle;Signal;HPM_P1;HPM_P2
2022/10/11 00:02:23;;;;;;;0.10;0.10;;;;;;;;;;5022317;28;20840;-80
2022/10/11 00:04:50;;;;;;;0.10;0.10;;;;;;;;;;5023055;28;20902;-80
2022/10/11 00:07:19;;;;;;;0.10;0.10;;;;;;;;;;5022727;28;20430;-80
2022/10/11 00:09:46;;;;;;;0.10;0.10;;;;;;;;;;5023341;28;20422;-80
2022/10/11 00:12:12;;;;;;;0.10;0.10;;;;;;;;;;5007542;28;20419;-81
2022/10/11 00:14:38;;;;;;;0.10;0.10;;;;;;;;;;4991137;28;20456;-80
2022/10/11 00:17:06;;;;;;;0.10;0.10;;;;;;;;;;5022539;28;20446;-80
2022/10/11 00:19:32;;;;;;;0.10;0.10;;;;;;;;;;5006941;28;20961;-79
2022/10/11 00:21:58;;;;;;;0.00;0.00;;;;;;;;;;5003082;28;20817;-81
2022/10/11 00:24:24;;;;;;;0.10;0.10;;;;;;;;;;5024739;28;20790;-80
2022/10/11 00:26:50;;;;;;;0.10;0.10;;;;;;;;;;5023735;28;20789;-80
2022/10/11 00:29:17;;;;;;;0.10;0.10;;;;;;;;;;5011380;28;20937;-81
2022/10/11 00:31:43;;;;;;;0.10;0.10;;;;;;;;;;5027236;28;20423;-80
2022/10/11 00:34:10;;;;;;;0.10;0.10;;;;;;;;;;5024693;28;20423;-81
2022/10/11 00:36:37;;;;;;;0.10;0.10;;;;;;;;;;5008421;28;20474;-81
2022/10/11 00:39:03;;;;;;;0.30;0.30;;;;;;;;;;4995260;28;20437;-81
2022/10/11 00:41:29;;;;;;;0.10;0.10;;;;;;;;;;5028319;28;21001;-80
2022/10/11 00:44:12;;;;;;;0.10;0.10;;;;;;;;;;5029361;28;20430;-81
2022/10/11 00:46:39;;;;;;;0.10;0.10;;;;;;;;;;5023786;28;20433;-80
2022/10/11 00:49:25;;;;;;;0.10;0.10;;;;;;;;;;5023589;28;20767;-81
2022/10/11 00:51:56;;;;;;;0.10;0.10;;;;;;;;;;5009508;28;20438;-80
2022/10/11 00:54:24;;;;;;;0.10;0.10;;;;;;;;;;5027325;28;20448;-81
2022/10/11 00:56:52;;;;;;;0.10;0.10;;;;;;;;;;5029446;28;20435;-81
2022/10/11 00:59:21;;;;;;;0.10;0.10;;;;;;;;;;5026403;28;20922;-81
2022/10/11 01:01:47;;;;;;;0.10;0.10;;;;;;;;;;5026485;28;20506;-81
2022/10/11 01:04:13;;;;;;;0.10;0.10;;;;;;;;;;5010499;28;20427;-81
2022/10/11 01:06:39;;;;;;;0.10;0.10;;;;;;;;;;5025700;28;20422;-80
2022/10/11 01:09:06;;;;;;;0.10;0.10;;;;;;;;;;5026985;28;20427;-80
2022/10/11 01:11:32;;;;;;;0.10;0.10;;;;;;;;;;5027305;28;20443;-82
2022/10/11 01:14:19;;;;;;;0.10;0.10;;;;;;;;;;4992584;28;20428;-80
2022/10/11 01:17:01;;;;;;;0.10;0.10;;;;;;;;;;5026462;28;20775;-81
2022/10/11 01:19:33;;;;;;;0.10;0.10;;;;;;;;;;5009782;28;20430;-80
2022/10/11 01:22:15;;;;;;;0.00;0.00;;;;;;;;;;5008245;28;20432;-80
2022/10/11 01:24:41;;;;;;;0.10;0.10;;;;;;;;;;5027571;28;20813;-79
2022/10/11 01:27:27;;;;;;;0.10;0.10;;;;;;;;;;5027061;28;20435;-80
2022/10/11 01:30:12;;;;;;;0.10;0.10;;;;;;;;;;4999564;28;20520;-81
2022/10/11 01:32:44;;;;;;;0.10;0.10;;;;;;;;;;5006459;28;21029;-80
2022/10/11 01:35:13;;;;;;;0.10;0.10;;;;;;;;;;5027374;28;20458;-81
2022/10/11 01:37:46;;;;;;;0.10;0.10;;;;;;;;;;5023699;28;20435;-80
2022/10/11 01:40:24;;;;;;;1.30;0.70;;;;;;;;;;5009682;28;20478;-80
2022/10/11 01:42:51;;;;;;;0.00;0.00;;;;;;;;;;5006615;28;20549;-80
2022/10/11 01:45:18;;;;;;;0.10;0.10;;;;;;;;;;5025419;28;20431;-80
2022/10/11 01:47:44;;;;;;;0.10;0.10;;;;;;;;;;5007277;28;20427;-80
2022/10/11 01:50:29;;;;;;;0.10;0.10;;;;;;;;;;5011378;28;20500;-80
2022/10/11 01:52:58;;;;;;;0.10;0.10;;;;;;;;;;5004218;28;20430;-81
2022/10/11 01:55:33;;;;;;;0.10;0.10;;;;;;;;;;5010693;28;20434;-80
2022/10/11 01:58:06;;;;;;;0.10;0.10;;;;;;;;;;5022326;28;20953;-80
2022/10/11 02:00:39;;;;;;;0.10;0.10;;;;;;;;;;5025934;28;20640;-79
2022/10/11 02:03:05;;;;;;;0.10;0.10;;;;;;;;;;5007248;28;20431;-79
2022/10/11 02:05:35;;;;;;;0.10;0.10;;;;;;;;;;5026721;28;20944;-80
2022/10/11 02:08:01;;;;;;;0.10;0.10;;;;;;;;;;5008283;28;20878;-80
2022/10/11 02:10:36;;;;;;;0.10;0.10;;;;;;;;;;5025062;28;20502;-80
2022/10/11 02:13:02;;;;;;;0.10;0.10;;;;;;;;;;5019302;28;20436;-80
2022/10/11 02:15:30;;;;;;;0.10;0.10;;;;;;;;;;5026026;28;20447;-79
2022/10/11 02:17:58;;;;;;;0.10;0.10;;;;;;;;;;5025842;28;20431;-79
2022/10/11 02:20:25;;;;;;;0.10;0.10;;;;;;;;;;5025217;28;20502;-79
2022/10/11 02:22:56;;;;;;;0.10;0.10;;;;;;;;;;5030578;28;20990;-80
2022/10/11 02:25:24;;;;;;;0.10;0.10;;;;;;;;;;5025753;28;20486;-80
2022/10/11 02:27:53;;;;;;;0.10;0.10;;;;;;;;;;5023530;28;20460;-79
2022/10/11 02:30:19;;;;;;;0.10;0.10;;;;;;;;;;5008873;28;20486;-79
2022/10/11 02:32:46;;;;;;;0.10;0.10;;;;;;;;;;5025134;28;20431;-79
2022/10/11 02:35:13;;;;;;;0.10;0.10;;;;;;;;;;5005846;28;20533;-80
2022/10/11 02:37:41;;;;;;;0.10;0.10;;;;;;;;;;5024755;28;20779;-80
2022/10/11 02:40:15;;;;;;;0.10;0.10;;;;;;;;;;5007993;28;20522;-80
2022/10/11 02:42:43;;;;;;;0.40;0.40;;;;;;;;;;5024979;28;21002;-80
2022/10/11 02:45:16;;;;;;;0.10;0.10;;;;;;;;;;5022849;28;20472;-78
2022/10/11 02:47:43;;;;;;;0.10;0.10;;;;;;;;;;5022980;28;20441;-79
2022/10/11 02:50:10;;;;;;;0.40;0.30;;;;;;;;;;5011063;28;20433;-79
2022/10/11 02:52:37;;;;;;;0.10;0.10;;;;;;;;;;5031351;28;20437;-80
2022/10/11 02:55:03;;;;;;;0.00;0.00;;;;;;;;;;4998648;28;20427;-80
2022/10/11 02:57:29;;;;;;;0.10;0.10;;;;;;;;;;5028292;28;20916;-79
2022/10/11 02:59:55;;;;;;;0.10;0.10;;;;;;;;;;5009708;28;20754;-80
2022/10/11 03:02:21;;;;;;;0.10;0.10;;;;;;;;;;5009444;28;20436;-80
2022/10/11 03:04:47;;;;;;;0.10;0.10;;;;;;;;;;5007420;28;20494;-79
2022/10/11 03:07:13;;;;;;;0.10;0.10;;;;;;;;;;5010264;28;20636;-79
2022/10/11 03:09:40;;;;;;;0.10;0.10;;;;;;;;;;5028994;28;20418;-80
2022/10/11 03:12:06;;;;;;;0.10;0.10;;;;;;;;;;5026080;28;20429;-80
2022/10/11 03:14:32;;;;;;;0.10;0.10;;;;;;;;;;5026257;28;20434;-79
2022/10/11 03:16:59;;;;;;;0.10;0.10;;;;;;;;;;5007458;28;20431;-80
2022/10/11 03:19:25;;;;;;;0.10;0.10;;;;;;;;;;5025775;28;20449;-79
2022/10/11 03:21:51;;;;;;;0.10;0.10;;;;;;;;;;5024296;28;20936;-79
2022/10/11 03:24:17;;;;;;;0.10;0.10;;;;;;;;;;5024639;28;20917;-80
2022/10/11 03:26:43;;;;;;;0.10;0.10;;;;;;;;;;5004896;28;20533;-80
2022/10/11 03:29:09;;;;;;;0.10;0.10;;;;;;;;;;5025881;28;20925;-80
2022/10/11 03:31:36;;;;;;;0.10;0.10;;;;;;;;;;5007691;28;20423;-80
2022/10/11 03:34:02;;;;;;;0.13;0.13;;;;;;;;;;5024531;28;20429;-80
2022/10/11 03:36:28;;;;;;;0.10;0.10;;;;;;;;;;5021321;28;20462;-80
2022/10/11 03:38:54;;;;;;;0.10;0.10;;;;;;;;;;5008581;28;20431;-80
2022/10/11 03:41:20;;;;;;;0.10;0.10;;;;;;;;;;5024173;28;20790;-79
2022/10/11 03:43:46;;;;;;;0.10;0.10;;;;;;;;;;5024530;28;20423;-79
2022/10/11 03:46:12;;;;;;;0.10;0.10;;;;;;;;;;5023420;28;20430;-79
2022/10/11 03:48:38;;;;;;;0.10;0.10;;;;;;;;;;5021424;28;20517;-80
2022/10/11 03:51:04;;;;;;;0.70;0.60;;;;;;;;;;5023764;28;20778;-79
2022/10/11 03:53:30;;;;;;;0.10;0.10;;;;;;;;;;5006197;28;20433;-80
2022/10/11 03:55:56;;;;;;;0.10;0.10;;;;;;;;;;5025260;28;20531;-80
2022/10/11 03:58:23;;;;;;;0.10;0.10;;;;;;;;;;5021319;28;20431;-80
2022/10/11 04:00:49;;;;;;;0.10;0.10;;;;;;;;;;5010716;28;20930;-80
2022/10/11 04:03:15;;;;;;;0.10;0.10;;;;;;;;;;5027908;28;20426;-80
2022/10/11 04:05:41;;;;;;;0.10;0.10;;;;;;;;;;5027785;28;20422;-79
2022/10/11 04:08:07;;;;;;;0.10;0.10;;;;;;;;;;5008201;28;20415;-79
2022/10/11 04:10:33;;;;;;;0.10;0.10;;;;;;;;;;5029011;28;20423;-80
2022/10/11 04:13:01;;;;;;;0.10;0.10;;;;;;;;;;4994298;28;20516;-80
2022/10/11 04:15:27;;;;;;;0.10;0.10;;;;;;;;;;5011400;28;20844;-79
2022/10/11 04:17:53;;;;;;;0.10;0.10;;;;;;;;;;5024246;28;20442;-80
2022/10/11 04:20:19;;;;;;;0.10;0.10;;;;;;;;;;5007945;28;20438;-80
2022/10/11 04:22:45;;;;;;;0.10;0.10;;;;;;;;;;5026838;28;20481;-80
2022/10/11 04:25:11;;;;;;;0.10;0.10;;;;;;;;;;5026789;28;21142;-79
2022/10/11 04:27:37;;;;;;;0.10;0.10;;;;;;;;;;5008124;28;20439;-80
2022/10/11 04:30:03;;;;;;;0.10;0.10;;;;;;;;;;5023384;28;20437;-80
2022/10/11 04:32:29;;;;;;;0.10;0.10;;;;;;;;;;5026968;28;20418;-80
2022/10/11 04:34:55;;;;;;;0.10;0.10;;;;;;;;;;5026807;28;20434;-81
2022/10/11 04:37:21;;;;;;;0.10;0.10;;;;;;;;;;5010557;28;20517;-80
2022/10/11 04:39:47;;;;;;;0.10;0.10;;;;;;;;;;5027601;28;20454;-80
2022/10/11 04:42:13;;;;;;;0.10;0.10;;;;;;;;;;5025921;28;21209;-80
2022/10/11 04:44:39;;;;;;;0.10;0.10;;;;;;;;;;5027351;28;20426;-80
2022/10/11 04:47:05;;;;;;;0.00;0.00;;;;;;;;;;5024289;28;20415;-80
2022/10/11 04:49:32;;;;;;;3.00;0.40;;;;;;;;;;5010795;28;20446;-79
2022/10/11 04:51:58;;;;;;;0.10;0.10;;;;;;;;;;4998662;28;20423;-79
2022/10/11 04:54:24;;;;;;;0.50;0.40;;;;;;;;;;5027179;28;20782;-80
2022/10/11 04:56:50;;;;;;;0.10;0.10;;;;;;;;;;5008491;28;20439;-78
2022/10/11 04:59:16;;;;;;;0.10;0.10;;;;;;;;;;5027689;28;20474;-78
2022/10/11 05:01:42;;;;;;;0.10;0.10;;;;;;;;;;5024854;28;20463;-79
2022/10/11 05:04:08;;;;;;;0.10;0.10;;;;;;;;;;5020671;28;20435;-79
2022/10/11 05:06:34;;;;;;;0.10;0.10;;;;;;;;;;5024830;28;20488;-80
2022/10/11 05:09:00;;;;;;;0.10;0.10;;;;;;;;;;5025510;28;20434;-78
2022/10/11 05:11:26;;;;;;;0.05;0.05;;;;;;;;;;5027055;28;20430;-75
2022/10/11 05:13:52;;;;;;;0.10;0.10;;;;;;;;;;5025426;28;20832;-76
2022/10/11 05:16:18;;;;;;;0.10;0.10;;;;;;;;;;5025937;28;20426;-76
2022/10/11 05:18:44;;;;;;;0.10;0.10;;;;;;;;;;5027273;28;20430;-76
2022/10/11 05:21:20;;;;;;;0.10;0.10;;;;;;;;;;5026156;28;20431;-76
2022/10/11 05:23:47;;;;;;;0.10;0.10;;;;;;;;;;5027191;28;20518;-77
2022/10/11 05:26:14;;;;;;;0.10;0.10;;;;;;;;;;5010419;28;20534;-77
2022/10/11 05:28:40;;;;;;;0.10;0.10;;;;;;;;;;5028340;28;20423;-77
2022/10/11 05:31:06;;;;;;;0.00;0.00;;;;;;;;;;5025391;28;20527;-77
2022/10/11 05:33:32;;;;;;;0.20;0.20;;;;;;;;;;5027333;28;20462;-78
2022/10/11 05:35:59;;;;;;;0.10;0.10;;;;;;;;;;5013561;28;20417;-78
2022/10/11 05:38:25;;;;;;;0.10;0.10;;;;;;;;;;5024303;28;20932;-79
2022/10/11 05:40:51;;;;;;;0.10;0.10;;;;;;;;;;5027306;28;20547;-79
2022/10/11 05:43:18;;;;;;;0.10;0.10;;;;;;;;;;5023991;28;20497;-79
2022/10/11 05:45:44;;;;;;;0.00;0.00;;;;;;;;;;5006177;28;20427;-79
2022/10/11 05:48:10;;;;;;;0.10;0.10;;;;;;;;;;5026943;28;20470;-78
2022/10/11 05:50:37;;;;;;;0.10;0.10;;;;;;;;;;5009148;28;20439;-81
2022/10/11 05:53:03;;;;;;;0.10;0.10;;;;;;;;;;5026223;28;20426;-79
2022/10/11 05:55:29;;;;;;;0.10;0.10;;;;;;;;;;5030780;28;20548;-81
2022/10/11 05:57:56;;;;;;;0.10;0.10;;;;;;;;;;5028589;28;20430;-79
2022/10/11 06:00:22;;;;;;;0.10;0.10;;;;;;;;;;5000312;28;20433;-79
2022/10/11 06:02:48;;;;;;;0.15;0.15;;;;;;;;;;5031935;28;20429;-79
2022/10/11 06:05:15;;;;;;;0.10;0.10;;;;;;;;;;5012684;28;20543;-78
2022/10/11 06:07:41;;;;;;;0.20;0.20;;;;;;;;;;5031638;28;20864;-79
2022/10/11 06:10:07;;;;;;;1.40;0.80;;;;;;;;;;5009705;28;20767;-80
2022/10/11 06:12:33;;;;;;;0.00;0.00;;;;;;;;;;5030758;28;20450;-80
2022/10/11 06:15:00;;;;;;;0.00;0.00;;;;;;;;;;5027179;28;20464;-79
2022/10/11 06:17:26;;;;;;;0.10;0.10;;;;;;;;;;5027984;28;20427;-80
2022/10/11 06:19:52;;;;;;;0.10;0.10;;;;;;;;;;5029870;28;20419;-79
2022/10/11 06:22:18;;;;;;;0.10;0.10;;;;;;;;;;5028714;28;20458;-79
2022/10/11 06:24:44;;;;;;;0.20;0.20;;;;;;;;;;5031305;28;20442;-79
2022/10/11 06:27:10;;;;;;;0.10;0.10;;;;;;;;;;5028875;28;20419;-80
2022/10/11 06:29:36;;;;;;;0.05;0.05;;;;;;;;;;5014754;28;20481;-80
2022/10/11 06:32:02;;;;;;;0.10;0.10;;;;;;;;;;5007942;28;20427;-79
2022/10/11 06:34:28;;;;;;;0.10;0.10;;;;;;;;;;5027513;28;20510;-79
2022/10/11 06:36:54;;;;;;;0.10;0.10;;;;;;;;;;5013599;28;20423;-80
2022/10/11 06:39:20;;;;;;;0.10;0.10;;;;;;;;;;5010173;28;20437;-79
2022/10/11 06:41:46;;;;;;;0.10;0.10;;;;;;;;;;5013384;28;20426;-80
2022/10/11 06:44:13;;;;;;;0.10;0.10;;;;;;;;;;5029600;28;20425;-79
2022/10/11 06:46:39;;;;;;;0.10;0.10;;;;;;;;;;5029768;28;20735;-79
2022/10/11 06:49:05;;;;;;;0.10;0.10;;;;;;;;;;5010708;28;20966;-79
2022/10/11 06:51:33;;;;;;;0.10;0.10;;;;;;;;;;5007424;28;20451;-80
2022/10/11 06:54:00;;;;;;;0.10;0.10;;;;;;;;;;5005465;28;20426;-79
2022/10/11 06:56:27;;;;;;;0.10;0.10;;;;;;;;;;4997192;28;20425;-79
2022/10/11 06:58:54;;;;;;;0.10;0.10;;;;;;;;;;5009641;28;20433;-79
2022/10/11 07:01:22;;;;;;;0.10;0.10;;;;;;;;;;5007516;28;20433;-79
2022/10/11 07:03:48;;;;;;;0.10;0.10;;;;;;;;;;5027272;28;20813;-79
2022/10/11 07:06:19;;;;;;;0.10;0.10;;;;;;;;;;5025722;28;20431;-78
2022/10/11 07:08:45;;;;;;;0.10;0.10;;;;;;;;;;5028309;28;20419;-79
2022/10/11 07:11:12;;;;;;;0.10;0.10;;;;;;;;;;5028701;28;20427;-78
2022/10/11 07:13:39;;;;;;;0.10;0.10;;;;;;;;;;5029984;28;20450;-79
2022/10/11 07:16:09;;;;;;;0.10;0.10;;;;;;;;;;5009220;28;20435;-78
2022/10/11 07:18:35;;;;;;;0.10;0.10;;;;;;;;;;5018152;28;20979;-79
2022/10/11 07:21:03;;;;;;;0.10;0.10;;;;;;;;;;5012041;28;20511;-79
2022/10/11 07:23:29;;;;;;;0.10;0.10;;;;;;;;;;5011772;28;20426;-79
2022/10/11 07:25:55;;;;;;;0.10;0.10;;;;;;;;;;5010048;28;20814;-79
2022/10/11 07:28:22;;;;;;;0.10;0.10;;;;;;;;;;5028456;28;20782;-79
2022/10/11 07:30:48;;;;;;;0.10;0.10;;;;;;;;;;5010920;28;20443;-80
2022/10/11 07:33:14;;;;;;;0.10;0.10;;;;;;;;;;5009658;28;20433;-79
2022/10/11 07:35:40;;;;;;;0.10;0.10;;;;;;;;;;5014731;28;20952;-80
2022/10/11 07:38:07;;;;;;;0.10;0.10;;;;;;;;;;5006874;28;20529;-80
2022/10/11 07:40:33;;;;;;;0.10;0.10;;;;;;;;;;5012070;28;20582;-79
2022/10/11 07:43:00;;;;;;;0.10;0.10;;;;;;;;;;5025760;28;20430;-80
2022/10/11 07:45:29;;;;;;;0.10;0.10;;;;;;;;;;5023585;28;20438;-80
2022/10/11 07:47:56;;;;;;;0.70;0.50;;;;;;;;;;5026771;28;20830;-80
2022/10/11 07:50:22;;;;;;;0.10;0.10;;;;;;;;;;5029633;28;20556;-79
2022/10/11 07:52:48;;;;;;;0.10;0.10;;;;;;;;;;5030443;28;20442;-80
2022/10/11 07:55:14;;;;;;;0.10;0.10;;;;;;;;;;5025639;28;20423;-76
2022/10/11 07:57:40;;;;;;;0.10;0.10;;;;;;;;;;5033204;28;20431;-75
2022/10/11 08:00:07;;;;;;;0.10;0.10;;;;;;;;;;5032390;28;20418;-75
2022/10/11 08:02:33;;;;;;;0.10;0.10;;;;;;;;;;5030199;28;20712;-75
2022/10/11 08:04:59;;;;;;;0.10;0.10;;;;;;;;;;5003460;28;20962;-76
2022/10/11 08:07:27;;;;;;;0.40;0.40;;;;;;;;;;5031039;28;20419;-75
2022/10/11 08:09:53;;;;;;;0.50;0.50;;;;;;;;;;5034704;28;20419;-76
2022/10/11 08:12:19;;;;;;;0.10;0.10;;;;;;;;;;5032703;28;20902;-76
2022/10/11 08:14:45;;;;;;;0.10;0.10;;;;;;;;;;5014350;28;20434;-76
2022/10/11 08:17:11;;;;;;;0.10;0.10;;;;;;;;;;5030983;28;20434;-82
2022/10/11 08:19:37;;;;;;;0.10;0.10;;;;;;;;;;5029098;28;20514;-81
2022/10/11 08:22:03;;;;;;;0.10;0.10;;;;;;;;;;5015978;28;20509;-78
2022/10/11 08:24:29;;;;;;;0.10;0.10;;;;;;;;;;4997388;28;20459;-78
2022/10/11 08:26:55;;;;;;;0.20;0.20;;;;;;;;;;5029356;28;20831;-80
2022/10/11 08:29:21;;;;;;;0.10;0.10;;;;;;;;;;5025647;28;20428;-80
2022/10/11 08:31:48;;;;;;;0.10;0.10;;;;;;;;;;4998406;28;20898;-81
2022/10/11 08:34:14;;;;;;;0.10;0.10;;;;;;;;;;5021485;28;20563;-77
2022/10/11 08:36:40;;;;;;;0.10;0.10;;;;;;;;;;5026192;28;20438;-78
2022/10/11 08:39:06;;;;;;;0.10;0.10;;;;;;;;;;5004858;28;20527;-78
2022/10/11 08:41:42;;;;;;;0.10;0.10;;;;;;;;;;5027642;28;20426;-77
2022/10/11 08:44:34;;;;;;;0.10;0.10;;;;;;;;;;5023164;28;20477;-77
2022/10/11 08:47:29;;;;;;;2.50;0.40;;;;;;;;;;5028719;28;20538;-77
2022/10/11 08:49:56;;;;;;;0.10;0.10;;;;;;;;;;5005860;28;20435;-79
2022/10/11 08:52:51;;;;;;;0.10;0.10;;;;;;;;;;5025123;28;20909;-82
2022/10/11 08:55:36;;;;;;;0.32;0.32;;;;;;;;;;5020019;28;20533;-80
2022/10/11 08:58:03;;;;;;;0.00;0.00;;;;;;;;;;5009713;28;20503;-77
2022/10/11 09:00:31;;;;;;;0.10;0.10;;;;;;;;;;5029874;28;20909;-77
2022/10/11 09:03:03;;;;;;;0.10;0.10;;;;;;;;;;5028129;28;20419;-77
2022/10/11 09:05:39;;;;;;;0.10;0.10;;;;;;;;;;5014143;28;20427;-78
2022/10/11 09:08:09;;;;;;;0.10;0.10;;;;;;;;;;5029830;28;20454;-78
2022/10/11 09:10:54;;;;;;;0.10;0.10;;;;;;;;;;5010520;28;20495;-78
2022/10/11 09:13:45;;;;;;;0.10;0.10;;;;;;;;;;5029711;28;20462;-78
2022/10/11 09:16:14;;;;;;;0.10;0.10;;;;;;;;;;5030189;28;20481;-78
2022/10/11 09:18:41;;;;;;;0.10;0.10;;;;;;;;;;5031889;28;20427;-78
2022/10/11 09:21:26;;;;;;;0.00;0.00;;;;;;;;;;5029051;28;20419;-78
2022/10/11 09:24:02;;;;;;;0.10;0.10;;;;;;;;;;5015227;28;20511;-78
2022/10/11 09:26:31;;;;;;;0.22;0.15;;;;;;;;;;5026883;28;20519;-78
2022/10/11 09:29:03;;;;;;;0.10;0.10;;;;;;;;;;5030748;28;20537;-78
2022/10/11 09:31:30;;;;;;;0.10;0.10;;;;;;;;;;5014734;28;20434;-78
2022/10/11 09:33:57;;;;;;;0.20;0.20;;;;;;;;;;4973304;28;1077975;-77
2022/10/11 09:36:43;;;;;;;0.10;0.10;;;;;;;;;;5013443;28;20435;-78
2022/10/11 09:39:20;;;;;;;0.20;0.20;;;;;;;;;;5014204;28;20441;-78
2022/10/11 09:41:51;;;;;;;0.03;0.03;;;;;;;;;;5030725;28;20423;-77
2022/10/11 09:44:25;;;;;;;0.10;0.10;;;;;;;;;;5031432;28;20423;-78
2022/10/11 09:46:52;;;;;;;0.10;0.10;;;;;;;;;;5027957;28;20521;-78
2022/10/11 09:49:19;;;;;;;5.60;0.40;;;;;;;;;;5022310;28;20923;-78
2022/10/11 09:51:52;;;;;;;0.10;0.10;;;;;;;;;;4997262;28;20430;-78
2022/10/11 09:54:26;;;;;;;0.10;0.10;;;;;;;;;;5032025;28;20841;-78
2022/10/11 09:56:53;;;;;;;0.10;0.10;;;;;;;;;;5016834;28;20450;-78
2022/10/11 09:59:29;;;;;;;0.10;0.10;;;;;;;;;;5030084;28;20430;-78
2022/10/11 10:02:10;;;;;;;0.10;0.10;;;;;;;;;;5029334;28;20426;-78
2022/10/11 10:04:53;;;;;;;0.20;0.20;;;;;;;;;;5009938;28;20931;-78
2022/10/11 10:07:20;;;;;;;0.10;0.10;;;;;;;;;;5017579;28;20764;-80
2022/10/11 10:09:46;;;;;;;0.20;0.20;;;;;;;;;;5014520;28;20426;-79
2022/10/11 10:12:14;;;;;;;0.10;0.10;;;;;;;;;;5014862;28;20426;-79
2022/10/11 10:14:40;;;;;;;0.10;0.10;;;;;;;;;;5022003;28;20427;-79
2022/10/11 10:17:13;;;;;;;0.10;0.10;;;;;;;;;;5012837;28;21447;-78
2022/10/11 10:19:51;;;;;;;0.10;0.10;;;;;;;;;;5028682;28;20775;-80
2022/10/11 10:22:18;;;;;;;0.10;0.10;;;;;;;;;;4994345;28;20492;-80
2022/10/11 10:24:44;;;;;;;0.10;0.10;;;;;;;;;;5028353;28;20521;-78
2022/10/11 10:27:15;;;;;;;0.10;0.10;;;;;;;;;;5010752;28;20547;-81
2022/10/11 10:29:42;;;;;;;0.10;0.10;;;;;;;;;;5028674;28;20910;-81
2022/10/11 10:32:28;;;;;;;0.10;0.10;;;;;;;;;;5011455;28;20763;-85
2022/10/11 10:35:00;;;;;;;0.10;0.10;;;;;;;;;;4985838;28;20976;-80
2022/10/11 10:37:33;;;;;;;0.40;0.40;;;;;;;;;;5031497;28;20486;-80
2022/10/11 10:40:02;;;;;;;0.10;0.10;;;;;;;;;;5006368;28;20460;-82
2022/10/11 10:42:28;;;;;;;0.10;0.10;;;;;;;;;;5026551;28;20916;-82
2022/10/11 10:44:56;;;;;;;0.10;0.10;;;;;;;;;;5009866;28;20419;-82
2022/10/11 10:47:41;;;;;;;0.10;0.10;;;;;;;;;;5026369;28;20454;-82
2022/10/11 10:50:11;;;;;;;0.10;0.10;;;;;;;;;;5025657;28;20529;-83
2022/10/11 10:52:56;;;;;;;0.10;0.10;;;;;;;;;;5011279;28;20429;-81
2022/10/11 10:55:23;;;;;;;0.10;0.10;;;;;;;;;;5023426;28;20428;-82
2022/10/11 10:57:59;;;;;;;0.10;0.10;;;;;;;;;;5031060;28;20435;-78
2022/10/11 11:00:28;;;;;;;0.70;0.60;;;;;;;;;;5006319;28;21097;-82
2022/10/11 11:02:54;;;;;;;0.10;0.10;;;;;;;;;;5027410;28;20434;-78
2022/10/11 11:05:39;;;;;;;0.10;0.10;;;;;;;;;;5029343;28;20922;-85
2022/10/11 11:08:12;;;;;;;0.00;0.00;;;;;;;;;;5010728;28;20431;-79
2022/10/11 11:10:58;;;;;;;0.10;0.10;;;;;;;;;;5027840;28;20438;-85
2022/10/11 11:13:30;;;;;;;0.10;0.10;;;;;;;;;;5027822;28;20480;-85
2022/10/11 11:16:11;;;;;;;0.00;0.00;;;;;;;;;;4994229;28;20746;-83
2022/10/11 11:18:37;;;;;;;0.10;0.10;;;;;;;;;;5029688;28;20448;-83
2022/10/11 11:21:07;;;;;;;0.10;0.10;;;;;;;;;;5002131;28;20434;-82
2022/10/11 11:23:39;;;;;;;0.03;0.03;;;;;;;;;;5018606;28;20427;-82
2022/10/11 11:26:20;;;;;;;0.10;0.10;;;;;;;;;;5020497;28;20431;-82
2022/10/11 11:28:54;;;;;;;0.05;0.05;;;;;;;;;;5028994;28;20425;-82
2022/10/11 11:31:40;;;;;;;0.30;0.30;;;;;;;;;;5016073;28;20883;-82
2022/10/11 11:34:21;;;;;;;0.10;0.10;;;;;;;;;;5023982;28;20429;-81
2022/10/11 11:36:56;;;;;;;0.57;0.43;;;;;;;;;;4993518;28;20434;-82
2022/10/11 11:39:23;;;;;;;0.10;0.10;;;;;;;;;;5028000;28;21991;-81
2022/10/11 11:42:18;;;;;;;0.10;0.10;;;;;;;;;;5012566;28;20435;-81
2022/10/11 11:44:49;;;;;;;0.00;0.00;;;;;;;;;;4992479;28;20438;-81
2022/10/11 11:47:24;;;;;;;0.10;0.10;;;;;;;;;;5012099;28;20499;-82
2022/10/11 11:49:55;;;;;;;0.10;0.10;;;;;;;;;;5007636;28;20921;-82
2022/10/11 11:52:39;;;;;;;0.00;0.00;;;;;;;;;;5014545;28;20431;-83
2022/10/11 11:55:10;;;;;;;0.10;0.10;;;;;;;;;;5024992;28;20485;-81
2022/10/11 11:57:44;;;;;;;0.10;0.10;;;;;;;;;;5024121;28;20432;-82
2022/10/11 12:00:11;;;;;;;0.00;0.00;;;;;;;;;;5013031;28;20842;-85
2022/10/11 12:02:49;;;;;;;0.10;0.10;;;;;;;;;;5006087;28;20447;-79
2022/10/11 12:05:18;;;;;;;0.10;0.10;;;;;;;;;;5011028;28;20435;-79
2022/10/11 12:07:56;;;;;;;0.10;0.10;;;;;;;;;;5017080;28;20513;-79
2022/10/11 12:10:24;;;;;;;0.03;0.03;;;;;;;;;;5012078;28;20514;-83
2022/10/11 12:13:01;;;;;;;0.10;0.10;;;;;;;;;;5012494;28;20431;-83
2022/10/11 12:15:28;;;;;;;0.05;0.05;;;;;;;;;;5010050;28;20428;-83
2022/10/11 12:17:57;;;;;;;0.10;0.10;;;;;;;;;;5007097;28;20502;-83
2022/10/11 12:20:27;;;;;;;0.20;0.20;;;;;;;;;;5004777;28;20455;-88
2022/10/11 12:22:57;;;;;;;0.80;0.50;;;;;;;;;;5022542;28;20424;-81
2022/10/11 12:25:30;;;;;;;0.10;0.10;;;;;;;;;;5005027;28;20999;-81
2022/10/11 12:27:57;;;;;;;0.10;0.10;;;;;;;;;;5009818;28;20439;-83
2022/10/11 12:30:42;;;;;;;0.10;0.10;;;;;;;;;;5038038;28;20549;-82
2022/10/11 12:33:17;;;;;;;0.10;0.10;;;;;;;;;;4993129;28;20482;-81
2022/10/11 12:35:53;;;;;;;0.10;0.10;;;;;;;;;;5017361;28;20514;-82
2022/10/11 12:38:19;;;;;;;0.10;0.10;;;;;;;;;;5009628;28;20841;-81
2022/10/11 12:40:46;;;;;;;0.10;0.10;;;;;;;;;;5022265;28;20579;-82
2022/10/11 12:43:12;;;;;;;0.20;0.20;;;;;;;;;;5010451;28;20759;-82
2022/10/11 12:45:38;;;;;;;0.10;0.10;;;;;;;;;;5028467;28;20941;-84
2022/10/11 12:48:04;;;;;;;0.10;0.10;;;;;;;;;;5033505;28;20920;-83
2022/10/11 12:50:33;;;;;;;0.10;0.10;;;;;;;;;;5013131;28;20431;-79
2022/10/11 12:53:11;;;;;;;0.30;0.30;;;;;;;;;;5024729;28;20500;-83
2022/10/11 12:55:44;;;;;;;0.00;0.00;;;;;;;;;;5021011;28;20753;-81
2022/10/11 12:58:16;;;;;;;0.00;0.00;;;;;;;;;;5017587;28;20734;-81
2022/10/11 13:01:02;;;;;;;0.10;0.10;;;;;;;;;;5012403;28;20900;-80
2022/10/11 13:03:37;;;;;;;0.10;0.10;;;;;;;;;;5014165;28;20963;-81
2022/10/11 13:06:10;;;;;;;0.10;0.10;;;;;;;;;;5016788;28;20444;-81
2022/10/11 13:08:39;;;;;;;0.10;0.10;;;;;;;;;;5015468;28;20430;-80
2022/10/11 13:11:08;;;;;;;0.60;0.40;;;;;;;;;;5033794;28;20418;-81
2022/10/11 13:13:38;;;;;;;0.10;0.10;;;;;;;;;;5016392;28;20430;-81
2022/10/11 13:16:07;;;;;;;0.10;0.10;;;;;;;;;;5032208;28;20442;-81
2022/10/11 13:18:33;;;;;;;0.10;0.10;;;;;;;;;;5012840;28;20462;-81
2022/10/11 13:20:59;;;;;;;0.10;0.10;;;;;;;;;;5015529;28;20462;-81
2022/10/11 13:23:27;;;;;;;0.10;0.10;;;;;;;;;;5029894;28;20427;-80
2022/10/11 13:25:53;;;;;;;0.10;0.10;;;;;;;;;;5009027;28;20423;-80
2022/10/11 13:28:20;;;;;;;0.10;0.10;;;;;;;;;;5040209;28;20458;-81
2022/10/11 13:30:48;;;;;;;0.10;0.10;;;;;;;;;;5007365;28;20429;-81
2022/10/11 13:33:19;;;;;;;0.10;0.10;;;;;;;;;;5015723;28;20427;-80
2022/10/11 13:35:45;;;;;;;1.00;0.60;;;;;;;;;;5013277;28;20561;-81
2022/10/11 13:38:19;;;;;;;0.30;0.30;;;;;;;;;;5007293;28;20440;-81
2022/10/11 13:40:45;;;;;;;0.10;0.10;;;;;;;;;;5039075;28;20425;-81
2022/10/11 13:43:13;;;;;;;0.08;0.08;;;;;;;;;;5013339;28;20429;-81
2022/10/11 13:45:40;;;;;;;0.10;0.10;;;;;;;;;;5014860;28;20540;-81
2022/10/11 13:48:12;;;;;;;0.10;0.10;;;;;;;;;;5018313;28;20662;-81
2022/10/11 13:50:38;;;;;;;0.10;0.10;;;;;;;;;;5028295;28;20426;-82
2022/10/11 13:53:21;;;;;;;0.10;0.10;;;;;;;;;;5014273;28;20434;-81
2022/10/11 13:55:52;;;;;;;0.10;0.10;;;;;;;;;;5028322;28;20783;-82
2022/10/11 13:58:30;;;;;;;0.30;0.30;;;;;;;;;;5031826;28;20423;-82
2022/10/11 14:00:58;;;;;;;0.00;0.00;;;;;;;;;;5031697;28;20508;-82
2022/10/11 14:03:26;;;;;;;0.00;0.00;;;;;;;;;;5029356;28;20992;-80
2022/10/11 14:05:57;;;;;;;0.10;0.10;;;;;;;;;;5021773;28;20433;-81
2022/10/11 14:08:37;;;;;;;0.10;0.10;;;;;;;;;;5020016;28;20433;-80
2022/10/11 14:11:03;;;;;;;0.10;0.10;;;;;;;;;;5024801;28;20429;-80
2022/10/11 14:13:31;;;;;;;0.10;0.10;;;;;;;;;;5010458;28;20899;-81
2022/10/11 14:16:20;;;;;;;0.10;0.10;;;;;;;;;;5007540;28;20431;-82
2022/10/11 14:18:46;;;;;;;0.10;0.10;;;;;;;;;;5024908;28;20442;-84
2022/10/11 14:21:19;;;;;;;0.10;0.10;;;;;;;;;;5027400;28;20438;-81
2022/10/11 14:24:05;;;;;;;0.10;0.10;;;;;;;;;;5022757;28;20500;-85
2022/10/11 14:26:35;;;;;;;0.10;0.10;;;;;;;;;;5005259;28;20435;-83
2022/10/11 14:29:04;;;;;;;0.10;0.10;;;;;;;;;;5026085;28;20497;-86
2022/10/11 14:31:30;;;;;;;0.10;0.10;;;;;;;;;;5032486;28;20423;-85
2022/10/11 14:33:57;;;;;;;0.10;0.10;;;;;;;;;;5027124;28;20427;-85
2022/10/11 14:36:23;;;;;;;0.10;0.10;;;;;;;;;;5033409;28;20475;-87
2022/10/11 14:38:50;;;;;;;0.10;0.10;;;;;;;;;;5035123;28;20969;-82
2022/10/11 14:41:16;;;;;;;0.10;0.10;;;;;;;;;;5011804;28;20434;-82
2022/10/11 14:43:42;;;;;;;0.10;0.10;;;;;;;;;;5005684;28;20419;-80
2022/10/11 14:46:25;;;;;;;0.10;0.10;;;;;;;;;;5007783;28;20776;-81
2022/10/11 14:48:52;;;;;;;0.10;0.10;;;;;;;;;;5028208;28;20913;-82
2022/10/11 14:51:20;;;;;;;0.10;0.10;;;;;;;;;;4999686;28;20514;-82
2022/10/11 14:53:46;;;;;;;0.10;0.10;;;;;;;;;;5032904;28;20461;-80
2022/10/11 14:56:13;;;;;;;0.10;0.10;;;;;;;;;;5025202;28;20435;-82
2022/10/11 14:58:40;;;;;;;0.10;0.10;;;;;;;;;;5021680;28;20974;-79